Time;durP1;ratioP1;P1;durP2;ratioP2;P2;SDS_P1;SDS_P2;PMS_P1;PMS_P2;Temp;Humidity;BMP_temperature;BMP_pressure;BME280_temperature;BME280_humidity;BME280_pressure;Samples;Min_cycle;Max_cycle;Signal;HPM_P1;HPM_P2
2024/02/02 00:00:02;;;;;;;20.10;13.30;;;;;;;2.96;100.00;99897.98;87413;269;24029;-75
2024/02/02 00:02:08;;;;;;;16.50;12.50;;;;;;;2.98;100.00;99904.08;87636;271;24052;-70
2024/02/02 00:04:10;;;;;;;16.20;13.10;;;;;;;2.99;100.00;99901.57;87283;271;139656;-73
2024/02/02 00:06:12;;;;;;;25.70;17.80;;;;;;;2.96;100.00;99898.18;87230;271;22579;-73
2024/02/02 00:08:14;;;;;;;32.70;22.60;;;;;;;2.91;100.00;99895.84;87377;271;136548;-72
2024/02/02 00:10:17;;;;;;;42.20;27.90;;;;;;;2.85;100.00;99896.23;87413;267;22638;-75
2024/02/02 00:12:18;;;;;;;40.70;28.00;;;;;;;2.81;100.00;99895.18;87334;274;137055;-74
2024/02/02 00:14:20;;;;;;;29.10;20.20;;;;;;;2.80;100.00;99896.38;87247;280;22559;-76
2024/02/02 00:16:22;;;;;;;20.70;14.70;;;;;;;2.79;100.00;99895.02;87298;267;136507;-75
2024/02/02 00:18:24;;;;;;;20.50;14.20;;;;;;;2.85;100.00;99892.55;87339;271;23118;-78
2024/02/02 00:20:26;;;;;;;16.90;11.90;;;;;;;2.87;100.00;99888.27;87297;278;138551;-77
2024/02/02 00:22:28;;;;;;;20.00;14.90;;;;;;;2.89;100.00;99890.55;87432;279;25103;-73
2024/02/02 00:24:29;;;;;;;21.00;16.00;;;;;;;2.86;100.00;99888.05;87335;278;136239;-77
2024/02/02 00:26:32;;;;;;;24.10;19.00;;;;;;;2.80;100.00;99890.89;87394;271;25133;-72
2024/02/02 00:28:33;;;;;;;23.10;16.60;;;;;;;2.75;100.00;99894.20;87236;272;136562;-75
2024/02/02 00:30:37;;;;;;;20.60;14.50;;;;;;;2.67;100.00;99888.95;87443;267;22631;-77
2024/02/02 00:32:43;;;;;;;16.30;11.20;;;;;;;2.66;100.00;99893.15;87354;278;136665;-73
2024/02/02 00:34:46;;;;;;;13.80;10.10;;;;;;;2.70;100.00;99886.73;87361;269;22631;-75
2024/02/02 00:36:49;;;;;;;11.90;10.70;;;;;;;2.74;100.00;99887.64;87426;271;136878;-76
2024/02/02 00:38:51;;;;;;;14.80;11.30;;;;;;;2.74;100.00;99885.89;87654;278;22571;-73
2024/02/02 00:40:53;;;;;;;13.80;10.60;;;;;;;2.69;100.00;99886.04;87590;263;136548;-73
2024/02/02 00:42:54;;;;;;;12.60;10.10;;;;;;;2.63;100.00;99884.86;87313;271;25133;-74
2024/02/02 00:44:57;;;;;;;12.60;9.30;;;;;;;2.59;100.00;99882.21;88155;274;136868;-73
2024/02/02 00:46:59;;;;;;;11.30;8.00;;;;;;;2.56;100.00;99883.76;89555;267;22593;-72
2024/02/02 00:49:02;;;;;;;11.10;8.60;;;;;;;2.55;100.00;99878.77;89129;276;135557;-73
2024/02/02 00:51:04;;;;;;;9.90;7.00;;;;;;;2.59;100.00;99872.39;88862;271;22715;-76
2024/02/02 00:53:07;;;;;;;11.70;8.30;;;;;;;2.68;100.00;99878.33;87799;271;136745;-72
2024/02/02 00:55:09;;;;;;;8.50;7.60;;;;;;;2.76;100.00;99876.43;87609;271;22845;-76
2024/02/02 00:57:12;;;;;;;8.00;6.50;;;;;;;2.78;100.00;99877.13;87415;271;135596;-73
2024/02/02 00:59:14;;;;;;;9.20;7.10;;;;;;;2.73;100.00;99878.23;87597;267;25079;-74
2024/02/02 01:01:16;;;;;;;10.10;7.70;;;;;;;2.67;100.00;99876.68;87369;271;135782;-74
2024/02/02 01:03:18;;;;;;;10.70;6.70;;;;;;;2.63;100.00;99876.38;87207;276;22639;-73
2024/02/02 01:05:20;;;;;;;14.00;7.80;;;;;;;2.61;100.00;99876.31;87360;271;136497;-74
2024/02/02 01:07:22;;;;;;;6.80;6.10;;;;;;;2.59;100.00;99877.17;87371;279;22578;-74
2024/02/02 01:09:25;;;;;;;7.80;6.90;;;;;;;2.63;100.00;99880.14;87281;278;138581;-75
2024/02/02 01:11:27;;;;;;;6.40;5.30;;;;;;;2.69;100.00;99875.67;87376;278;25121;-76
2024/02/02 01:13:29;;;;;;;7.00;4.70;;;;;;;2.74;100.00;99877.66;87132;271;136667;-73
2024/02/02 01:15:32;;;;;;;6.40;4.90;;;;;;;2.72;100.00;99870.84;87332;275;22576;-74
2024/02/02 01:17:33;;;;;;;5.90;5.20;;;;;;;2.66;100.00;99869.47;87091;271;136111;-72
2024/02/02 01:19:36;;;;;;;7.60;5.50;;;;;;;2.61;100.00;99867.30;87286;271;22558;-75
2024/02/02 01:21:38;;;;;;;8.50;5.10;;;;;;;2.56;100.00;99876.78;87273;267;136104;-75
2024/02/02 01:23:40;;;;;;;9.70;4.80;;;;;;;2.50;100.00;99873.97;87390;271;24209;-75
2024/02/02 01:25:42;;;;;;;10.40;5.40;;;;;;;2.50;100.00;99870.14;87207;271;138916;-74
2024/02/02 01:27:45;;;;;;;8.10;5.30;;;;;;;2.57;100.00;99873.11;87452;275;24044;-75
2024/02/02 01:29:47;;;;;;;8.30;5.50;;;;;;;2.64;100.00;99868.28;87243;278;136733;-74
2024/02/02 01:31:48;;;;;;;11.10;7.00;;;;;;;2.63;100.00;99867.42;87349;271;25281;-75
2024/02/02 01:33:50;;;;;;;7.60;6.90;;;;;;;2.58;100.00;99869.17;87228;267;136122;-74
2024/02/02 01:35:52;;;;;;;7.70;6.90;;;;;;;2.55;100.00;99873.35;87252;279;25224;-76
2024/02/02 01:37:54;;;;;;;12.10;7.90;;;;;;;2.52;100.00;99877.84;87297;271;137349;-71
2024/02/02 01:39:57;;;;;;;9.90;6.50;;;;;;;2.51;100.00;99876.77;87375;263;25295;-75
2024/02/02 01:41:59;;;;;;;8.50;5.90;;;;;;;2.51;100.00;99876.86;87478;271;136659;-71
2024/02/02 01:44:01;;;;;;;10.10;5.70;;;;;;;2.48;100.00;99870.59;87356;271;22586;-74
2024/02/02 01:46:03;;;;;;;7.50;5.40;;;;;;;2.54;100.00;99885.02;87267;272;25188;-70
2024/02/02 01:48:07;;;;;;;5.90;4.50;;;;;;;2.56;100.00;99883.82;87225;271;137926;-73
2024/02/02 01:50:09;;;;;;;8.90;5.50;;;;;;;2.54;100.00;99883.94;87410;274;23886;-74
2024/02/02 01:52:11;;;;;;;10.40;6.70;;;;;;;2.48;100.00;99885.41;87388;270;137342;-73
2024/02/02 01:54:13;;;;;;;10.60;8.50;;;;;;;2.44;100.00;99882.45;87325;266;22712;-73
2024/02/02 01:56:15;;;;;;;18.60;14.10;;;;;;;2.41;100.00;99881.68;87235;267;136221;-72
2024/02/02 01:58:17;;;;;;;17.20;13.20;;;;;;;2.39;100.00;99880.59;87338;267;25116;-73
2024/02/02 02:00:20;;;;;;;22.60;15.20;;;;;;;2.44;100.00;99882.97;87087;278;137053;-72
2024/02/02 02:02:22;;;;;;;14.90;11.40;;;;;;;2.51;100.00;99883.65;87203;269;23787;-73
2024/02/02 02:04:24;;;;;;;12.40;8.10;;;;;;;2.60;100.00;99879.89;87130;270;137458;-72
2024/02/02 02:06:26;;;;;;;16.00;8.90;;;;;;;2.59;100.00;99894.85;87271;279;22575;-73
2024/02/02 02:08:28;;;;;;;8.90;6.00;;;;;;;2.54;100.00;99895.86;87294;267;136001;-73
2024/02/02 02:10:30;;;;;;;15.60;7.20;;;;;;;2.49;100.00;99907.20;87334;270;25185;-75
2024/02/02 02:12:31;;;;;;;6.70;5.10;;;;;;;2.46;100.00;99902.36;87158;262;136147;-75
2024/02/02 02:14:33;;;;;;;9.10;5.70;;;;;;;2.43;100.00;99906.90;87327;271;24068;-74
2024/02/02 02:16:35;;;;;;;7.70;5.40;;;;;;;2.48;100.00;99906.54;87271;275;136576;-76
2024/02/02 02:18:37;;;;;;;8.80;6.50;;;;;;;2.60;100.00;99905.06;87183;271;22652;-70
2024/02/02 02:20:54;;;;;;;14.70;9.20;;;;;;;2.70;100.00;99899.44;87026;271;137104;-73
2024/02/02 02:22:56;;;;;;;18.90;11.80;;;;;;;2.69;100.00;99900.72;87293;275;22565;-76
2024/02/02 02:24:57;;;;;;;14.80;10.00;;;;;;;2.66;100.00;99904.54;87181;268;137003;-77
2024/02/02 02:27:00;;;;;;;17.40;9.90;;;;;;;2.63;100.00;99901.80;87303;262;24774;-77
2024/02/02 02:29:03;;;;;;;11.50;7.50;;;;;;;2.62;100.00;99902.80;87243;273;137298;-73
2024/02/02 02:31:05;;;;;;;8.90;6.20;;;;;;;2.62;100.00;99904.58;87402;279;22584;-72
2024/02/02 02:33:07;;;;;;;8.40;5.20;;;;;;;2.64;100.00;99906.48;87183;274;136281;-75
2024/02/02 02:35:09;;;;;;;7.40;5.10;;;;;;;2.75;100.00;99912.45;87244;270;25182;-76
2024/02/02 02:37:10;;;;;;;11.50;7.80;;;;;;;2.86;100.00;99909.48;87310;277;137230;-71
2024/02/02 02:39:12;;;;;;;10.90;7.90;;;;;;;2.92;100.00;99908.15;87353;278;22615;-76
2024/02/02 02:41:14;;;;;;;10.70;7.50;;;;;;;2.97;100.00;99913.54;87229;275;136272;-75
2024/02/02 02:43:16;;;;;;;13.40;9.70;;;;;;;2.96;100.00;99916.09;87267;271;22572;-74
2024/02/02 02:45:19;;;;;;;10.90;7.50;;;;;;;2.96;100.00;99918.52;87136;278;136193;-73
2024/02/02 02:47:20;;;;;;;10.90;7.10;;;;;;;2.98;100.00;99925.20;87257;278;22573;-70
2024/02/02 02:49:22;;;;;;;9.70;6.60;;;;;;;2.97;100.00;99923.97;87081;266;137612;-73
2024/02/02 02:51:26;;;;;;;11.70;7.50;;;;;;;2.96;100.00;99920.63;87381;271;25560;-74
2024/02/02 02:53:29;;;;;;;10.30;7.60;;;;;;;2.91;100.00;99924.92;87223;278;138055;-74
2024/02/02 02:55:31;;;;;;;11.40;7.10;;;;;;;2.95;100.00;99920.66;87422;271;25338;-75
2024/02/02 02:57:33;;;;;;;11.70;8.00;;;;;;;3.03;100.00;99920.59;87215;278;136965;-73
2024/02/02 02:59:35;;;;;;;13.70;7.10;;;;;;;3.11;100.00;99923.91;87392;279;24752;-72
2024/02/02 03:01:37;;;;;;;8.80;6.00;;;;;;;3.11;100.00;99924.56;87184;267;136203;-73
2024/02/02 03:03:40;;;;;;;9.30;6.20;;;;;;;3.07;100.00;99924.59;87590;272;25156;-72
2024/02/02 03:05:42;;;;;;;7.90;5.70;;;;;;;3.00;100.00;99918.11;87576;275;137046;-73
2024/02/02 03:07:44;;;;;;;11.50;7.10;;;;;;;2.96;100.00;99920.93;87506;271;22560;-73
2024/02/02 03:09:45;;;;;;;11.80;7.00;;;;;;;2.95;100.00;99921.61;87114;271;137336;-72
2024/02/02 03:11:47;;;;;;;9.30;4.90;;;;;;;2.96;100.00;99919.19;87351;271;22544;-71
2024/02/02 03:13:49;;;;;;;8.20;4.80;;;;;;;3.02;100.00;99922.34;87278;266;136400;-73
2024/02/02 03:15:51;;;;;;;7.90;4.60;;;;;;;3.08;100.00;99924.37;87401;266;22590;-71
2024/02/02 03:17:53;;;;;;;5.00;3.60;;;;;;;3.09;100.00;99924.29;87317;271;135612;-72
2024/02/02 03:19:55;;;;;;;9.80;4.60;;;;;;;3.05;100.00;99923.20;87175;268;22618;-75
2024/02/02 03:21:57;;;;;;;5.80;4.00;;;;;;;3.02;100.00;99927.90;87130;274;137221;-74
2024/02/02 03:23:59;;;;;;;6.70;3.80;;;;;;;2.99;100.00;99931.85;87394;271;22538;-75
2024/02/02 03:26:01;;;;;;;7.10;4.70;;;;;;;2.94;100.00;99928.71;87191;270;136173;-75
2024/02/02 03:28:03;;;;;;;5.60;4.40;;;;;;;2.87;100.00;99934.98;87252;266;136391;-67
2024/02/02 03:30:07;;;;;;;9.10;4.40;;;;;;;2.79;100.00;99934.13;87349;271;22652;-75
2024/02/02 03:32:10;;;;;;;7.40;4.20;;;;;;;2.82;100.00;99935.65;87382;267;136906;-74
2024/02/02 03:34:11;;;;;;;8.80;4.70;;;;;;;2.88;100.00;99934.48;87312;267;22681;-76
2024/02/02 03:36:16;;;;;;;6.80;5.00;;;;;;;2.94;100.00;99935.91;87143;269;136805;-72
2024/02/02 03:38:18;;;;;;;8.80;5.40;;;;;;;2.90;100.00;99936.44;87420;278;22557;-73
2024/02/02 03:41:59;;;;;;;12.20;5.90;;;;;;;2.65;100.00;99943.57;85012;305;602917;-71
2024/02/02 03:44:00;;;;;;;7.40;5.20;;;;;;;2.59;100.00;99945.06;86264;286;22677;-73
2024/02/02 03:46:02;;;;;;;10.60;7.40;;;;;;;2.56;100.00;99948.71;86197;290;135025;-73
2024/02/02 03:48:05;;;;;;;16.30;12.10;;;;;;;2.51;100.00;99951.36;87185;270;137207;-72
2024/02/02 03:50:09;;;;;;;19.00;11.70;;;;;;;2.49;100.00;99954.69;87445;279;22568;-73
2024/02/02 03:52:11;;;;;;;16.40;10.10;;;;;;;2.49;100.00;99956.89;87139;278;135953;-73
2024/02/02 03:54:13;;;;;;;13.90;8.20;;;;;;;2.54;100.00;99958.52;87243;274;26383;-73
2024/02/02 03:56:15;;;;;;;9.60;5.40;;;;;;;2.63;100.00;99959.80;86692;269;727226;-75
2024/02/02 03:58:16;;;;;;;9.50;4.60;;;;;;;2.67;100.00;99960.20;87356;265;23619;-77
2024/02/02 04:00:18;;;;;;;9.50;5.10;;;;;;;2.65;100.00;99960.96;87261;268;135690;-72
2024/02/02 04:02:20;;;;;;;6.30;4.20;;;;;;;2.59;100.00;99962.38;87472;268;24329;-73
2024/02/02 04:04:22;;;;;;;10.00;5.50;;;;;;;2.55;100.00;99968.08;87295;268;135851;-75
2024/02/02 04:06:24;;;;;;;7.20;4.50;;;;;;;2.51;100.00;99965.27;87384;268;24222;-73
2024/02/02 04:08:28;;;;;;;10.30;5.90;;;;;;;2.52;100.00;99969.56;87241;265;135672;-74
2024/02/02 04:10:30;;;;;;;9.00;5.30;;;;;;;2.53;100.00;99974.73;87469;273;23023;-72
2024/02/02 04:12:32;;;;;;;12.10;6.00;;;;;;;2.50;100.00;99975.30;87305;268;136942;-71
2024/02/02 04:14:34;;;;;;;12.00;5.90;;;;;;;2.47;100.00;99977.39;87294;266;26252;-72
2024/02/02 04:16:36;;;;;;;9.10;4.20;;;;;;;2.49;100.00;99982.08;87249;273;135880;-72
2024/02/02 04:18:38;;;;;;;8.00;3.70;;;;;;;2.58;100.00;99989.53;87359;269;22602;-71
2024/02/02 04:20:40;;;;;;;6.70;4.30;;;;;;;2.65;100.00;99984.48;87317;273;137152;-75
2024/02/02 04:22:42;;;;;;;5.60;4.10;;;;;;;2.65;100.00;99988.16;87354;273;22553;-74
2024/02/02 04:24:44;;;;;;;9.10;4.90;;;;;;;2.62;100.00;99987.53;87284;269;135454;-74
2024/02/02 04:26:46;;;;;;;6.90;4.00;;;;;;;2.61;100.00;99993.48;87417;272;23001;-72
2024/02/02 04:28:49;;;;;;;6.50;3.10;;;;;;;2.56;100.00;99997.59;87289;268;135589;-72
2024/02/02 04:30:51;;;;;;;8.40;4.60;;;;;;;2.49;100.00;99997.73;87449;267;22555;-71
2024/02/02 04:32:52;;;;;;;7.60;3.50;;;;;;;2.43;100.00;99994.60;87176;268;135482;-75
2024/02/02 04:34:55;;;;;;;5.80;3.20;;;;;;;2.39;100.00;100009.16;87299;268;22568;-74
2024/02/02 04:36:59;;;;;;;7.30;4.60;;;;;;;2.36;100.00;100011.41;87322;273;137193;-72
2024/02/02 04:39:01;;;;;;;9.50;4.50;;;;;;;2.33;100.00;100014.39;87374;264;25166;-72
2024/02/02 04:41:03;;;;;;;3.00;2.30;;;;;;;2.33;100.00;100013.96;87247;268;135924;-72
2024/02/02 04:43:05;;;;;;;6.70;2.60;;;;;;;2.34;100.00;100019.62;87299;277;22578;-73
2024/02/02 04:45:08;;;;;;;4.50;1.80;;;;;;;2.42;100.00;100022.37;87209;265;136636;-72
2024/02/02 04:47:12;;;;;;;6.00;2.10;;;;;;;2.47;100.00;100024.38;87337;270;23739;-72
2024/02/02 04:49:16;;;;;;;4.40;2.10;;;;;;;2.46;100.00;100032.93;87311;268;135524;-73
2024/02/02 04:51:18;;;;;;;6.70;2.20;;;;;;;2.42;100.00;100034.48;87276;273;22544;-71
2024/02/02 04:53:20;;;;;;;5.50;2.00;;;;;;;2.40;100.00;100038.05;87299;273;135851;-73
2024/02/02 04:55:23;;;;;;;5.40;2.00;;;;;;;2.36;100.00;100042.44;87339;270;25319;-71
2024/02/02 04:57:24;;;;;;;6.50;2.90;;;;;;;2.33;100.00;100043.70;87163;273;135747;-73
2024/02/02 04:59:29;;;;;;;4.90;2.10;;;;;;;2.33;100.00;100042.03;87406;264;25252;-70
2024/02/02 05:01:31;;;;;;;3.90;1.90;;;;;;;2.31;100.00;100047.10;87188;268;135880;-71
2024/02/02 05:03:32;;;;;;;4.20;2.40;;;;;;;2.26;100.00;100046.80;87343;268;25117;-70
2024/02/02 05:05:34;;;;;;;7.60;2.50;;;;;;;2.23;100.00;100049.23;87257;273;137169;-71
2024/02/02 05:07:37;;;;;;;8.30;2.30;;;;;;;2.21;100.00;100050.64;87474;264;25544;-72
2024/02/02 05:09:41;;;;;;;6.00;2.80;;;;;;;2.21;100.00;100047.00;87223;264;136096;-71
2024/02/02 05:11:43;;;;;;;6.30;1.50;;;;;;;2.26;100.00;100045.14;87313;264;22549;-70
2024/02/02 05:13:45;;;;;;;7.30;1.10;;;;;;;2.30;100.00;100044.17;87121;264;136275;-72
2024/02/02 05:15:47;;;;;;;4.90;2.10;;;;;;;2.32;100.00;100052.41;87346;265;25103;-72
2024/02/02 05:17:49;;;;;;;5.70;2.10;;;;;;;2.29;100.00;100056.02;87163;268;135837;-72
2024/02/02 05:19:51;;;;;;;11.10;3.00;;;;;;;2.27;100.00;100058.54;87155;268;24852;-69
2024/02/02 05:21:53;;;;;;;7.80;2.10;;;;;;;2.27;100.00;100062.58;87104;268;135716;-68
2024/02/02 05:23:56;;;;;;;5.50;1.30;;;;;;;2.27;100.00;100066.79;87193;273;24132;-70
2024/02/02 05:26:20;;;;;;;6.20;1.70;;;;;;;2.27;100.00;100077.45;87240;270;23231;-69
2024/02/02 05:28:22;;;;;;;6.10;1.20;;;;;;;2.27;100.00;100075.70;87124;270;136031;-70
2024/02/02 05:30:25;;;;;;;4.90;1.70;;;;;;;2.26;100.00;100077.87;87077;268;25149;-68
2024/02/02 05:32:27;;;;;;;7.50;1.90;;;;;;;2.26;100.00;100078.56;87200;269;135931;-68
2024/02/02 05:34:29;;;;;;;7.90;2.50;;;;;;;2.26;100.00;100087.58;87267;273;22555;-68
2024/02/02 05:36:31;;;;;;;5.50;1.50;;;;;;;2.26;100.00;100088.96;87262;273;137425;-70
2024/02/02 05:38:33;;;;;;;3.60;1.40;;;;;;;2.29;100.00;100092.51;87220;269;22944;-69
2024/02/02 05:40:34;;;;;;;6.40;1.90;;;;;;;2.41;100.00;100093.73;87122;273;137536;-71
2024/02/02 05:42:36;;;;;;;5.30;1.20;;;;;;;2.52;100.00;100099.19;87246;269;23884;-70
2024/02/02 05:44:38;;;;;;;3.70;1.60;;;;;;;2.54;100.00;100103.05;87025;273;135378;-69
2024/02/02 05:46:40;;;;;;;2.90;1.00;;;;;;;2.49;100.00;100104.16;87195;264;24099;-70
2024/02/02 05:48:42;;;;;;;7.40;3.20;;;;;;;2.45;100.00;100106.63;87183;264;136883;-69
2024/02/02 05:50:47;;;;;;;6.60;1.50;;;;;;;2.43;100.00;100109.06;87274;268;22558;-69
2024/02/02 05:52:49;;;;;;;7.60;2.60;;;;;;;2.44;100.00;100106.91;87509;272;135752;-70
2024/02/02 05:54:51;;;;;;;7.30;2.10;;;;;;;2.47;100.00;100116.61;87408;268;23744;-69
2024/02/02 05:56:53;;;;;;;12.90;2.60;;;;;;;2.49;100.00;100114.73;87493;273;138033;-70
2024/02/02 05:58:55;;;;;;;6.70;0.80;;;;;;;2.50;100.00;100117.09;88514;273;25207;-69
2024/02/02 06:00:57;;;;;;;6.80;1.90;;;;;;;2.50;100.00;100121.79;88303;265;136114;-70
2024/02/02 06:02:59;;;;;;;4.10;1.20;;;;;;;2.52;100.00;100122.16;88243;273;25202;-69
2024/02/02 06:05:01;;;;;;;5.20;2.00;;;;;;;2.53;100.00;100125.73;87465;273;135900;-70
2024/02/02 06:07:03;;;;;;;8.00;2.30;;;;;;;2.52;100.00;100120.73;87285;266;25304;-70
2024/02/02 06:09:05;;;;;;;7.40;1.90;;;;;;;2.50;100.00;100121.98;87360;270;135475;-70
2024/02/02 06:11:08;;;;;;;4.20;1.70;;;;;;;2.48;100.00;100126.50;87210;265;25343;-69
2024/02/02 06:13:10;;;;;;;7.50;2.30;;;;;;;2.49;100.00;100132.42;87218;268;135921;-70
2024/02/02 06:15:12;;;;;;;3.80;0.80;;;;;;;2.56;100.00;100135.27;87114;277;25421;-73
2024/02/02 06:17:14;;;;;;;4.70;1.60;;;;;;;2.67;100.00;100135.53;87101;273;136483;-70
2024/02/02 06:19:16;;;;;;;11.50;1.70;;;;;;;2.79;100.00;100140.03;87186;273;25207;-73
2024/02/02 06:21:18;;;;;;;12.20;2.10;;;;;;;2.82;100.00;100143.61;87119;266;135935;-72
2024/02/02 06:23:20;;;;;;;16.00;2.80;;;;;;;2.80;99.72;100147.45;87182;268;22555;-72
2024/02/02 06:25:22;;;;;;;16.80;1.90;;;;;;;2.77;100.00;100144.98;87102;265;137124;-71
2024/02/02 06:27:25;;;;;;;5.10;1.80;;;;;;;2.78;100.00;100145.14;87244;277;22650;-73
2024/02/02 06:29:27;;;;;;;4.60;1.50;;;;;;;2.82;99.71;100147.48;87279;268;137393;-74
2024/02/02 06:31:31;;;;;;;3.20;1.50;;;;;;;2.85;99.84;100148.59;87188;268;24724;-72
2024/02/02 06:33:34;;;;;;;8.90;2.40;;;;;;;2.88;98.91;100150.05;87147;268;135740;-69
2024/02/02 06:35:36;;;;;;;7.40;1.60;;;;;;;2.89;98.08;100153.61;87279;267;22565;-71
2024/02/02 06:37:38;;;;;;;5.50;2.40;;;;;;;2.87;97.92;100155.18;87094;268;137179;-72
2024/02/02 06:39:40;;;;;;;4.90;1.70;;;;;;;2.87;97.94;100162.91;87125;264;22521;-71
2024/02/02 06:41:42;;;;;;;8.30;2.60;;;;;;;2.89;97.73;100160.52;87454;269;135756;-69
2024/02/02 06:43:44;;;;;;;5.70;1.60;;;;;;;2.90;97.89;100160.54;87138;273;25085;-69
2024/02/02 06:45:46;;;;;;;6.00;1.70;;;;;;;2.93;97.53;100165.02;87134;273;135942;-70
2024/02/02 06:47:50;;;;;;;9.00;2.10;;;;;;;2.96;97.65;100167.43;87240;268;22568;-72
2024/02/02 06:49:53;;;;;;;8.20;2.00;;;;;;;2.97;97.20;100167.14;87325;269;135393;-69
2024/02/02 06:51:57;;;;;;;8.50;2.30;;;;;;;3.00;97.37;100166.34;87229;264;22560;-70
2024/02/02 06:54:00;;;;;;;7.40;2.00;;;;;;;3.03;96.90;100169.71;87165;272;135608;-69
2024/02/02 06:56:41;;;;;;;6.20;2.70;;;;;;;3.07;96.65;100170.23;87108;267;136003;-69
2024/02/02 06:58:44;;;;;;;9.30;2.20;;;;;;;3.13;95.81;100176.02;87306;268;25239;-68
2024/02/02 07:00:46;;;;;;;7.30;2.30;;;;;;;3.13;95.62;100179.29;87191;267;136863;-72
2024/02/02 07:02:49;;;;;;;6.70;3.60;;;;;;;3.14;95.87;100182.09;87233;268;22772;-70
2024/02/02 07:04:51;;;;;;;5.70;2.40;;;;;;;3.15;95.79;100179.48;87352;268;137342;-71
2024/02/02 07:06:53;;;;;;;7.40;2.50;;;;;;;3.17;96.08;100176.48;87220;268;25292;-70
2024/02/02 07:09:01;;;;;;;11.00;2.80;;;;;;;3.19;95.28;100177.00;87104;274;136638;-71
2024/02/02 07:11:36;;;;;;;10.60;1.90;;;;;;;3.21;95.04;100181.37;87263;270;22695;-73
2024/02/02 07:13:52;;;;;;;3.80;1.10;;;;;;;3.24;95.41;100181.95;87134;269;136010;-71
2024/02/02 07:15:55;;;;;;;9.80;3.10;;;;;;;3.27;95.46;100181.83;87282;270;25089;-71
2024/02/02 07:17:58;;;;;;;5.30;1.90;;;;;;;3.30;95.40;100180.48;87415;268;136679;-70
2024/02/02 07:20:03;;;;;;;9.80;2.60;;;;;;;3.34;94.94;100181.93;87379;276;22645;-72
2024/02/02 07:22:32;;;;;;;6.30;2.50;;;;;;;3.35;95.16;100189.75;87281;273;22549;-73
2024/02/02 07:24:34;;;;;;;8.40;2.80;;;;;;;3.35;95.23;100189.74;87156;266;135622;-72
2024/02/02 07:26:37;;;;;;;7.70;3.30;;;;;;;3.34;95.04;100192.29;87323;266;22844;-75
2024/02/02 07:28:39;;;;;;;5.80;2.60;;;;;;;3.30;95.27;100193.32;87460;273;135723;-71
2024/02/02 07:30:43;;;;;;;7.30;2.50;;;;;;;3.30;95.80;100195.81;87426;277;23055;-70
2024/02/02 07:32:46;;;;;;;7.60;3.10;;;;;;;3.31;95.79;100198.70;87184;268;137330;-71
2024/02/02 07:34:50;;;;;;;10.30;2.40;;;;;;;3.31;96.04;100195.70;87456;268;22534;-70
2024/02/02 07:36:54;;;;;;;8.30;2.20;;;;;;;3.30;96.09;100196.70;87237;273;135964;-73
2024/02/02 07:38:57;;;;;;;5.10;2.20;;;;;;;3.30;96.28;100197.03;87230;273;23409;-71
2024/02/02 07:41:04;;;;;;;7.80;1.90;;;;;;;3.29;96.16;100196.09;87236;273;136291;-72
2024/02/02 07:43:07;;;;;;;6.90;1.90;;;;;;;3.27;96.31;100200.69;87408;260;22566;-72
2024/02/02 07:45:09;;;;;;;6.40;2.40;;;;;;;3.25;96.63;100202.56;87263;270;137391;-72
2024/02/02 07:47:11;;;;;;;8.70;2.30;;;;;;;3.24;96.50;100199.88;87377;270;22574;-72
2024/02/02 07:49:13;;;;;;;4.80;2.20;;;;;;;3.22;96.46;100204.44;87190;270;135541;-72
2024/02/02 07:51:18;;;;;;;8.30;2.10;;;;;;;3.20;96.47;100197.23;87386;270;25147;-71
2024/02/02 07:53:20;;;;;;;7.90;2.40;;;;;;;3.19;96.71;100196.52;87302;268;135843;-72
2024/02/02 07:55:22;;;;;;;12.10;3.00;;;;;;;3.19;97.01;100202.79;87295;269;25102;-73
2024/02/02 07:57:24;;;;;;;3.70;1.70;;;;;;;3.29;96.76;100201.23;87288;262;136571;-73
2024/02/02 07:59:26;;;;;;;7.50;3.20;;;;;;;3.41;96.52;100200.77;87296;270;25083;-72
2024/02/02 08:01:31;;;;;;;8.40;2.40;;;;;;;3.49;96.48;100206.10;87224;269;136377;-73
2024/02/02 08:03:34;;;;;;;5.30;2.70;;;;;;;3.53;96.26;100204.36;87339;269;22716;-72
2024/02/02 08:05:37;;;;;;;6.80;2.40;;;;;;;3.50;95.74;100203.42;87284;266;137299;-76
2024/02/02 08:07:40;;;;;;;9.80;3.00;;;;;;;3.47;95.95;100202.30;87269;275;25131;-71
2024/02/02 08:09:43;;;;;;;6.30;2.20;;;;;;;3.49;96.50;100207.55;87283;270;136079;-72
2024/02/02 08:11:45;;;;;;;6.20;2.50;;;;;;;3.56;96.81;100205.99;87373;269;23493;-73
2024/02/02 08:13:47;;;;;;;10.60;2.40;;;;;;;3.65;96.53;100204.67;87215;268;135821;-72
2024/02/02 08:15:51;;;;;;;8.40;2.50;;;;;;;3.70;95.99;100211.50;87304;277;22844;-70
2024/02/02 08:17:52;;;;;;;9.60;3.40;;;;;;;3.74;95.74;100211.34;87253;265;135775;-71
2024/02/02 08:19:54;;;;;;;7.60;2.80;;;;;;;3.79;94.88;100211.57;87586;269;22553;-72
2024/02/02 08:21:58;;;;;;;12.50;2.10;;;;;;;3.81;94.61;100212.29;87369;276;137286;-72
2024/02/02 08:24:01;;;;;;;8.80;2.10;;;;;;;3.80;94.47;100214.85;87464;270;22561;-72
2024/02/02 08:26:03;;;;;;;5.70;1.50;;;;;;;3.80;94.38;100214.27;87419;273;135399;-70
2024/02/02 08:28:05;;;;;;;6.50;2.10;;;;;;;3.81;93.88;100221.02;87392;269;136268;-74
2024/02/02 08:30:09;;;;;;;6.10;1.90;;;;;;;3.80;93.75;100215.00;87338;273;22556;-72
2024/02/02 08:32:12;;;;;;;6.00;1.80;;;;;;;3.77;94.35;100222.28;87335;270;135944;-71
2024/02/02 08:34:15;;;;;;;6.60;1.70;;;;;;;3.82;94.35;100220.79;87355;273;24065;-73
2024/02/02 08:36:20;;;;;;;3.80;1.70;;;;;;;3.81;93.82;100224.38;87356;269;136012;-73
2024/02/02 08:38:24;;;;;;;13.40;2.70;;;;;;;3.82;93.50;100224.95;87477;276;22571;-73
2024/02/02 08:40:38;;;;;;;5.00;2.20;;;;;;;3.86;93.17;100225.27;87295;272;136278;-71
2024/02/02 08:42:41;;;;;;;9.00;2.10;;;;;;;3.88;92.78;100223.11;87420;264;24120;-72
2024/02/02 08:44:43;;;;;;;9.30;1.80;;;;;;;3.90;92.54;100221.74;87311;273;135740;-71
2024/02/02 08:46:50;;;;;;;7.60;2.30;;;;;;;3.92;92.22;100226.17;87300;273;22564;-75
2024/02/02 08:48:54;;;;;;;7.70;2.60;;;;;;;3.93;92.08;100223.75;87296;269;135958;-70
2024/02/02 08:51:00;;;;;;;7.00;2.00;;;;;;;3.94;91.88;100226.27;87444;274;23756;-74
2024/02/02 08:53:03;;;;;;;8.80;2.10;;;;;;;3.95;91.53;100227.58;87240;266;136065;-73
2024/02/02 08:55:17;;;;;;;4.80;3.00;;;;;;;3.97;90.97;100229.92;87423;273;22566;-72
2024/02/02 08:57:37;;;;;;;8.50;2.30;;;;;;;3.96;90.66;100223.76;87152;265;135950;-71
2024/02/02 08:59:43;;;;;;;7.00;2.50;;;;;;;3.95;89.59;100223.55;87382;265;22549;-69
2024/02/02 09:01:45;;;;;;;14.10;5.40;;;;;;;3.92;89.51;100226.64;87280;273;135935;-71
2024/02/02 09:03:47;;;;;;;6.40;3.10;;;;;;;3.89;89.92;100226.94;87390;268;22555;-69
2024/02/02 09:05:51;;;;;;;7.30;2.40;;;;;;;3.92;89.81;100232.80;87350;273;135813;-71
2024/02/02 09:08:15;;;;;;;6.30;2.50;;;;;;;3.93;89.79;100231.89;87387;273;22559;-70
2024/02/02 09:10:37;;;;;;;8.40;3.30;;;;;;;3.93;90.10;100233.48;87353;273;25249;-70
2024/02/02 09:12:46;;;;;;;7.10;3.10;;;;;;;3.94;90.24;100232.32;87168;273;137407;-71
2024/02/02 09:14:48;;;;;;;7.60;3.70;;;;;;;3.91;90.25;100233.79;87404;267;25092;-72
2024/02/02 09:16:52;;;;;;;8.50;4.70;;;;;;;3.87;90.61;100233.23;87289;272;135948;-73
2024/02/02 09:18:55;;;;;;;9.00;3.80;;;;;;;3.85;90.58;100227.72;87371;273;25117;-71
2024/02/02 09:20:59;;;;;;;8.30;2.50;;;;;;;3.82;90.12;100226.73;87190;273;135733;-71
2024/02/02 09:23:03;;;;;;;7.60;2.80;;;;;;;3.82;90.08;100219.51;87423;268;22567;-73
2024/02/02 09:25:09;;;;;;;13.40;1.90;;;;;;;3.82;89.00;100220.39;87163;266;136222;-71
2024/02/02 09:27:35;;;;;;;5.40;1.20;;;;;;;3.81;88.17;100215.25;87360;268;22605;-71
2024/02/02 09:29:43;;;;;;;;;;;;;;;3.80;87.44;100223.07;87682;268;136073;-71
2024/02/02 09:31:44;;;;;;;4.80;1.70;;;;;;;3.80;85.53;100219.03;87507;269;22815;-72
2024/02/02 09:33:50;;;;;;;3.40;0.60;;;;;;;3.80;84.40;100221.52;87177;274;137744;-70
2024/02/02 09:35:53;;;;;;;11.30;0.70;;;;;;;3.81;82.41;100219.46;87355;274;24014;-69
2024/02/02 09:37:56;;;;;;;8.60;0.60;;;;;;;3.83;81.63;100217.34;87266;272;135889;-69
2024/02/02 09:39:58;;;;;;;11.80;1.40;;;;;;;3.83;80.17;100214.17;87314;268;23734;-72